Time;durP1;ratioP1;P1;durP2;ratioP2;P2;SDS_P1;SDS_P2;PMS_P1;PMS_P2;Temp;Humidity;BMP_temperature;BMP_pressure;BME280_temperature;BME280_humidity;BME280_pressure;Samples;Min_cycle;Max_cycle;Signal;HPM_P1;HPM_P2
2021/04/18 00:00:19;;;;;;;5.80;4.07;;;5.70;99.90;;;;;;5018241;28;20152;-77
2021/04/18 00:02:46;;;;;;;5.65;3.63;;;5.70;99.90;;;;;;5036276;28;20100;-77
2021/04/18 00:05:12;;;;;;;5.43;3.72;;;5.90;99.90;;;;;;5018413;28;20040;-76
2021/04/18 00:07:38;;;;;;;6.35;3.65;;;6.10;99.90;;;;;;5018017;28;20041;-77
2021/04/18 00:10:06;;;;;;;7.20;4.80;;;6.30;99.90;;;;;;5018097;28;20038;-77
2021/04/18 00:12:31;;;;;;;7.03;4.40;;;6.10;99.90;;;;;;5035652;28;20029;-77
2021/04/18 00:14:57;;;;;;;7.20;4.50;;;6.00;99.90;;;;;;5035636;28;20362;-77
2021/04/18 00:17:23;;;;;;;6.47;4.75;;;5.80;99.90;;;;;;5017917;28;20435;-76
2021/04/18 00:19:49;;;;;;;9.43;4.85;;;5.70;99.90;;;;;;5018370;28;20022;-77
2021/04/18 00:22:15;;;;;;;6.25;4.28;;;5.70;99.90;;;;;;5035539;28;20075;-77
2021/04/18 00:24:40;;;;;;;6.88;4.53;;;5.90;99.90;;;;;;5035487;28;20030;-77
2021/04/18 00:27:07;;;;;;;8.98;4.80;;;6.10;99.90;;;;;;5017726;28;20035;-77
2021/04/18 00:29:32;;;;;;;7.55;4.03;;;5.90;99.90;;;;;;5017620;28;20029;-76
2021/04/18 00:31:58;;;;;;;8.27;4.80;;;5.90;99.90;;;;;;5017883;28;20063;-76
2021/04/18 00:34:24;;;;;;;5.25;3.60;;;5.90;99.90;;;;;;5035230;28;20022;-77
2021/04/18 00:36:50;;;;;;;6.28;4.25;;;5.80;99.90;;;;;;5034935;28;20024;-76
2021/04/18 00:39:15;;;;;;;5.95;3.90;;;5.90;99.90;;;;;;5035204;28;20022;-77
2021/04/18 00:41:41;;;;;;;8.00;4.35;;;6.10;99.90;;;;;;5035205;28;20049;-77
2021/04/18 00:44:10;;;;;;;7.43;5.38;;;6.20;99.90;;;;;;5017263;28;20049;-77
2021/04/18 00:46:36;;;;;;;6.07;3.95;;;6.30;99.90;;;;;;5035092;28;20504;-76
2021/04/18 00:49:02;;;;;;;6.38;4.68;;;6.10;99.90;;;;;;5035034;28;20017;-77
2021/04/18 00:51:27;;;;;;;6.60;4.13;;;6.20;99.90;;;;;;5034980;28;20025;-77
2021/04/18 00:53:53;;;;;;;9.35;4.85;;;6.20;99.90;;;;;;5035133;28;20101;-77
2021/04/18 00:56:19;;;;;;;7.00;4.82;;;6.10;99.90;;;;;;5017178;28;20091;-77
2021/04/18 00:58:45;;;;;;;7.07;4.93;;;5.90;99.90;;;;;;5034873;28;20021;-77
2021/04/18 01:01:10;;;;;;;8.48;5.55;;;5.80;99.90;;;;;;5017105;28;20026;-77
2021/04/18 01:03:36;;;;;;;6.72;4.40;;;5.70;99.90;;;;;;5034799;28;20562;-77
2021/04/18 01:06:02;;;;;;;5.35;3.88;;;5.90;99.90;;;;;;5034744;28;20021;-77
2021/04/18 01:08:28;;;;;;;8.38;5.40;;;6.00;99.90;;;;;;5034964;28;20026;-77
2021/04/18 01:10:54;;;;;;;6.68;5.10;;;6.10;99.90;;;;;;5016852;28;20021;-77
2021/04/18 01:13:20;;;;;;;6.40;4.95;;;5.90;99.90;;;;;;5034604;28;20049;-77
2021/04/18 01:15:45;;;;;;;10.57;5.57;;;5.70;99.90;;;;;;5034449;28;20026;-77
2021/04/18 01:18:11;;;;;;;8.57;5.60;;;5.60;99.90;;;;;;5016766;28;20022;-78
2021/04/18 01:20:37;;;;;;;8.43;5.13;;;5.60;99.90;;;;;;5016749;28;20396;-77
2021/04/18 01:23:02;;;;;;;7.65;6.03;;;5.60;99.90;;;;;;5016717;28;20026;-76
2021/04/18 01:25:28;;;;;;;7.43;5.00;;;5.50;99.90;;;;;;5034644;28;20111;-76
2021/04/18 01:27:55;;;;;;;8.40;5.13;;;5.40;99.90;;;;;;5034526;28;20026;-77
2021/04/18 01:30:25;;;;;;;7.75;4.85;;;5.40;99.90;;;;;;5034493;28;20025;-77
2021/04/18 01:32:53;;;;;;;8.95;5.60;;;5.60;99.90;;;;;;5016488;28;20039;-76
2021/04/18 01:35:19;;;;;;;8.77;5.18;;;5.60;99.90;;;;;;5034369;28;20525;-77
2021/04/18 01:37:45;;;;;;;9.07;4.55;;;5.70;99.90;;;;;;5034023;28;20538;-76
2021/04/18 01:40:13;;;;;;;8.63;5.22;;;5.70;99.90;;;;;;5034058;28;20021;-77
2021/04/18 01:42:40;;;;;;;11.13;5.30;;;5.70;99.90;;;;;;5016128;28;20440;-77
2021/04/18 01:45:07;;;;;;;9.40;5.88;;;5.70;99.90;;;;;;5033997;28;20025;-76
2021/04/18 01:47:32;;;;;;;7.53;5.30;;;5.60;99.90;;;;;;5015680;28;20099;-77
2021/04/18 01:49:59;;;;;;;10.07;5.78;;;5.70;99.90;;;;;;5033772;28;20468;-77
2021/04/18 01:52:25;;;;;;;9.38;5.82;;;5.70;99.90;;;;;;5034467;28;20075;-77
2021/04/18 01:54:51;;;;;;;7.78;4.90;;;5.60;99.90;;;;;;5016066;28;20033;-76
2021/04/18 01:57:17;;;;;;;11.13;6.35;;;5.60;99.90;;;;;;5016143;28;20079;-77
2021/04/18 01:59:42;;;;;;;7.40;5.63;;;5.60;99.90;;;;;;5034051;28;20045;-76
2021/04/18 02:02:10;;;;;;;8.98;4.50;;;5.60;99.90;;;;;;5033718;28;20496;-77
2021/04/18 02:04:36;;;;;;;10.20;5.82;;;5.60;99.90;;;;;;5033764;28;20017;-76
2021/04/18 02:07:03;;;;;;;6.72;4.50;;;5.60;99.90;;;;;;5033678;28;20477;-77
2021/04/18 02:09:30;;;;;;;6.57;4.57;;;5.70;99.90;;;;;;5015846;28;20025;-76
2021/04/18 02:12:05;;;;;;;8.85;5.32;;;5.70;99.90;;;;;;5015816;28;20036;-77
2021/04/18 02:14:30;;;;;;;9.52;5.38;;;5.60;99.90;;;;;;5015788;28;20029;-76
2021/04/18 02:16:56;;;;;;;9.48;6.80;;;5.50;99.90;;;;;;5033488;28;20052;-77
2021/04/18 02:19:22;;;;;;;6.22;5.13;;;5.50;99.90;;;;;;5033490;28;20025;-76
2021/04/18 02:21:48;;;;;;;8.35;6.00;;;5.50;99.90;;;;;;5033381;28;20477;-76
2021/04/18 02:24:14;;;;;;;10.38;7.10;;;5.50;99.90;;;;;;5033671;28;20101;-77
2021/04/18 02:26:40;;;;;;;8.80;5.95;;;5.50;99.90;;;;;;5033696;28;20057;-76
2021/04/18 02:29:06;;;;;;;6.72;4.45;;;5.50;99.90;;;;;;5015677;28;20653;-76
2021/04/18 02:31:32;;;;;;;10.50;6.47;;;5.60;99.90;;;;;;5015612;28;20120;-76
2021/04/18 02:33:58;;;;;;;7.47;5.28;;;5.60;99.90;;;;;;5015521;28;20120;-76
2021/04/18 02:36:24;;;;;;;6.43;4.50;;;5.60;99.90;;;;;;5015538;28;20034;-77
2021/04/18 02:38:50;;;;;;;9.93;6.07;;;5.70;99.90;;;;;;5033121;28;20097;-76
2021/04/18 02:41:15;;;;;;;7.82;5.70;;;5.70;99.90;;;;;;5033199;28;20409;-77
2021/04/18 02:43:41;;;;;;;15.18;5.97;;;5.70;99.90;;;;;;5015328;28;20044;-76
2021/04/18 02:46:07;;;;;;;8.85;6.10;;;5.60;99.90;;;;;;5033087;28;20022;-77
2021/04/18 02:48:33;;;;;;;7.93;5.85;;;5.50;99.90;;;;;;5015383;28;20393;-77
2021/04/18 02:50:59;;;;;;;8.27;5.70;;;5.40;99.90;;;;;;5033090;28;20018;-76
2021/04/18 02:53:24;;;;;;;10.98;6.38;;;5.50;99.90;;;;;;5033156;28;20487;-77
2021/04/18 02:55:50;;;;;;;7.85;5.03;;;5.50;99.90;;;;;;5033047;28;20030;-76
2021/04/18 02:58:16;;;;;;;7.95;4.88;;;5.50;99.90;;;;;;5033078;28;20024;-77
2021/04/18 03:00:41;;;;;;;9.18;5.22;;;5.60;99.90;;;;;;5036378;28;20100;-77
2021/04/18 03:03:07;;;;;;;10.75;5.90;;;5.70;99.90;;;;;;5019233;28;20026;-76
2021/04/18 03:05:33;;;;;;;9.05;5.20;;;5.70;99.90;;;;;;5019312;28;20095;-76
2021/04/18 03:07:58;;;;;;;8.05;6.18;;;5.60;99.90;;;;;;5019240;28;20392;-77
2021/04/18 03:10:24;;;;;;;11.55;6.07;;;5.50;99.90;;;;;;5019145;28;20108;-76
2021/04/18 03:12:50;;;;;;;8.77;6.00;;;5.50;99.90;;;;;;5036817;28;20032;-76
2021/04/18 03:15:16;;;;;;;9.82;5.88;;;5.50;99.90;;;;;;5036742;28;20036;-77
2021/04/18 03:17:42;;;;;;;7.65;5.80;;;5.60;99.90;;;;;;5018979;28;20088;-77
2021/04/18 03:20:08;;;;;;;9.27;6.10;;;5.50;99.90;;;;;;5018971;28;20017;-77
2021/04/18 03:22:34;;;;;;;9.32;5.80;;;5.60;99.90;;;;;;5036990;28;20025;-77
2021/04/18 03:25:00;;;;;;;9.73;6.40;;;5.50;99.90;;;;;;5036664;28;20547;-76
2021/04/18 03:27:26;;;;;;;13.52;7.00;;;5.60;99.90;;;;;;5018889;28;20040;-77
2021/04/18 03:29:51;;;;;;;8.80;6.15;;;5.60;99.90;;;;;;5036528;28;20025;-77
2021/04/18 03:32:17;;;;;;;8.05;5.95;;;5.60;99.90;;;;;;5036772;28;20036;-77
2021/04/18 03:34:43;;;;;;;10.93;5.85;;;5.50;99.90;;;;;;5036400;28;20032;-77
2021/04/18 03:37:09;;;;;;;7.93;4.80;;;5.50;99.90;;;;;;5036396;28;20385;-77
2021/04/18 03:39:35;;;;;;;11.52;5.82;;;5.60;99.90;;;;;;5036390;28;20358;-76
2021/04/18 03:42:00;;;;;;;8.32;5.65;;;5.60;99.90;;;;;;5036470;28;20071;-77
2021/04/18 03:44:27;;;;;;;7.13;5.03;;;5.60;99.90;;;;;;5018540;28;20060;-77
2021/04/18 03:46:53;;;;;;;7.63;6.07;;;5.60;99.90;;;;;;5018543;28;20029;-76
2021/04/18 03:49:18;;;;;;;9.90;6.72;;;5.70;99.90;;;;;;5036205;28;20393;-76
2021/04/18 03:51:45;;;;;;;14.00;6.05;;;5.60;99.90;;;;;;5036420;28;20026;-77
2021/04/18 03:54:11;;;;;;;10.82;6.05;;;5.50;99.90;;;;;;5036311;28;20104;-77
2021/04/18 03:56:37;;;;;;;7.75;5.60;;;5.50;99.90;;;;;;5036016;28;20104;-77
2021/04/18 03:59:02;;;;;;;10.73;6.68;;;5.50;99.90;;;;;;5036487;28;20036;-77
2021/04/18 04:01:29;;;;;;;8.05;5.65;;;5.50;99.90;;;;;;5035919;28;20025;-77
2021/04/18 04:03:55;;;;;;;10.25;6.78;;;5.60;99.90;;;;;;5018121;28;20048;-77
2021/04/18 04:06:21;;;;;;;8.43;5.82;;;5.60;99.90;;;;;;5018066;28;20029;-77
2021/04/18 04:08:47;;;;;;;7.40;5.72;;;5.60;99.90;;;;;;5036024;28;20029;-77
2021/04/18 04:11:13;;;;;;;8.68;5.88;;;5.60;99.90;;;;;;5035009;28;20048;-76
2021/04/18 04:13:38;;;;;;;9.93;6.00;;;5.60;99.90;;;;;;5036144;28;20038;-77
2021/04/18 04:16:04;;;;;;;8.93;6.10;;;5.50;99.90;;;;;;5035652;28;20049;-76
2021/04/18 04:18:30;;;;;;;9.32;5.43;;;5.60;99.90;;;;;;5036163;28;20033;-76
2021/04/18 04:20:56;;;;;;;8.10;6.25;;;5.60;99.90;;;;;;5035602;28;20025;-77
2021/04/18 04:23:21;;;;;;;10.98;6.07;;;5.70;99.90;;;;;;5035616;28;20014;-77
2021/04/18 04:25:47;;;;;;;9.57;5.88;;;5.70;99.90;;;;;;5017809;28;20025;-76
2021/04/18 04:28:14;;;;;;;7.40;5.72;;;5.80;99.90;;;;;;5017789;28;20108;-77
2021/04/18 04:30:40;;;;;;;10.25;6.05;;;5.80;99.90;;;;;;5035476;28;20056;-77
2021/04/18 04:33:06;;;;;;;7.80;5.25;;;5.80;99.90;;;;;;5017623;28;20026;-77
2021/04/18 04:35:31;;;;;;;7.60;5.65;;;5.80;99.90;;;;;;5035558;28;20515;-77
2021/04/18 04:37:58;;;;;;;11.75;6.75;;;5.80;99.90;;;;;;5035480;28;20033;-77
2021/04/18 04:40:24;;;;;;;5.43;4.63;;;5.70;99.90;;;;;;5017413;28;20022;-76
2021/04/18 04:42:50;;;;;;;12.10;6.15;;;5.60;99.90;;;;;;5017255;28;20068;-77
2021/04/18 04:45:16;;;;;;;8.50;5.65;;;5.70;99.90;;;;;;5017384;28;20033;-77
2021/04/18 04:47:42;;;;;;;9.10;5.85;;;5.70;99.90;;;;;;5017283;28;20111;-77
2021/04/18 04:50:09;;;;;;;12.63;6.93;;;5.70;99.90;;;;;;5017339;28;20053;-77
2021/04/18 04:52:35;;;;;;;9.60;5.93;;;5.60;99.90;;;;;;5017301;28;20025;-77
2021/04/18 04:55:00;;;;;;;9.32;5.95;;;5.60;99.90;;;;;;5034884;28;20119;-77
2021/04/18 04:57:26;;;;;;;9.02;6.40;;;5.60;99.90;;;;;;5017120;28;20507;-77
2021/04/18 04:59:52;;;;;;;8.85;7.15;;;5.50;99.90;;;;;;5035130;28;20425;-76
2021/04/18 05:02:17;;;;;;;8.55;6.00;;;5.40;99.90;;;;;;5017131;28;20083;-77
2021/04/18 05:04:43;;;;;;;9.95;6.72;;;5.50;99.90;;;;;;5034810;28;20029;-76
2021/04/18 05:07:09;;;;;;;9.85;6.32;;;5.40;99.90;;;;;;5034741;28;20389;-77
2021/04/18 05:09:34;;;;;;;10.32;7.22;;;5.30;99.90;;;;;;5016862;28;20037;-77
2021/04/18 05:12:00;;;;;;;11.48;7.03;;;5.30;99.90;;;;;;5016895;28;20025;-77
2021/04/18 05:14:26;;;;;;;11.52;7.60;;;5.40;99.90;;;;;;5034443;28;20029;-77
2021/04/18 05:16:52;;;;;;;11.25;6.63;;;5.30;99.90;;;;;;5016821;28;20030;-76
2021/04/18 05:19:18;;;;;;;18.38;8.32;;;5.40;99.90;;;;;;5016788;28;20021;-77
2021/04/18 05:21:43;;;;;;;13.35;7.13;;;5.40;99.90;;;;;;5016747;28;20524;-77
2021/04/18 05:24:09;;;;;;;10.18;6.45;;;5.50;99.90;;;;;;5015726;28;20033;-76
2021/04/18 05:26:35;;;;;;;9.55;6.47;;;5.50;99.90;;;;;;5016680;28;20029;-77
2021/04/18 05:29:00;;;;;;;12.65;7.15;;;5.50;99.90;;;;;;5034614;28;20063;-76
2021/04/18 05:31:26;;;;;;;15.20;8.38;;;5.50;99.90;;;;;;5034324;28;20484;-76
2021/04/18 05:33:52;;;;;;;9.40;6.90;;;5.60;99.90;;;;;;5016410;28;20026;-77
2021/04/18 05:36:18;;;;;;;11.43;7.63;;;5.60;99.90;;;;;;5034175;28;20361;-76
2021/04/18 05:38:43;;;;;;;9.00;6.22;;;5.50;99.90;;;;;;5034092;28;20076;-77
2021/04/18 05:41:09;;;;;;;10.02;6.50;;;5.50;99.90;;;;;;5016312;28;20387;-77
2021/04/18 05:43:35;;;;;;;9.15;6.47;;;5.70;99.90;;;;;;5033878;28;20046;-77
2021/04/18 05:46:01;;;;;;;8.75;5.47;;;5.70;99.90;;;;;;5033987;28;20504;-77
2021/04/18 05:48:26;;;;;;;9.93;6.35;;;5.80;99.90;;;;;;5016290;28;20053;-76
2021/04/18 05:50:52;;;;;;;7.97;6.50;;;5.70;99.90;;;;;;5016265;28;20025;-77
2021/04/18 05:53:17;;;;;;;9.18;6.43;;;5.70;99.90;;;;;;5016184;28;20393;-77
2021/04/18 05:55:43;;;;;;;14.68;7.97;;;5.70;99.90;;;;;;5034053;28;20083;-76
2021/04/18 05:58:11;;;;;;;10.02;6.10;;;5.70;99.90;;;;;;5034089;28;20041;-77
2021/04/18 06:00:37;;;;;;;12.15;7.78;;;5.80;99.90;;;;;;5016072;28;20396;-76
2021/04/18 06:03:04;;;;;;;13.32;8.00;;;5.80;99.90;;;;;;5034034;28;20017;-77
2021/04/18 06:05:29;;;;;;;12.82;7.70;;;5.70;99.90;;;;;;5015932;28;20029;-77
2021/04/18 06:07:55;;;;;;;10.35;6.90;;;5.70;99.90;;;;;;5015926;28;20362;-76
2021/04/18 06:10:21;;;;;;;13.23;7.80;;;5.80;99.90;;;;;;5033877;28;20033;-77
2021/04/18 06:12:46;;;;;;;10.40;7.28;;;5.80;99.90;;;;;;5016139;28;20040;-77
2021/04/18 06:15:13;;;;;;;9.73;6.38;;;5.70;99.90;;;;;;5015783;28;20055;-81
2021/04/18 06:17:39;;;;;;;9.80;7.72;;;5.80;99.90;;;;;;5033512;28;20388;-82
2021/04/18 06:20:06;;;;;;;9.93;6.90;;;5.70;99.90;;;;;;5033772;28;20025;-82
2021/04/18 06:22:32;;;;;;;13.32;7.13;;;5.80;99.90;;;;;;5033453;28;20100;-81
2021/04/18 06:24:57;;;;;;;9.73;7.13;;;5.70;99.90;;;;;;5016499;28;20025;-81
2021/04/18 06:27:23;;;;;;;12.80;8.10;;;5.70;99.90;;;;;;5015717;28;20366;-81
2021/04/18 06:29:49;;;;;;;11.52;7.88;;;5.80;99.90;;;;;;5033665;28;20025;-81
2021/04/18 06:32:14;;;;;;;10.48;7.40;;;5.80;99.90;;;;;;5033326;28;20033;-81
2021/04/18 06:34:40;;;;;;;11.65;7.00;;;5.80;99.90;;;;;;5032875;28;20087;-81
2021/04/18 06:37:06;;;;;;;10.18;7.15;;;5.90;99.90;;;;;;5015554;28;20481;-81
2021/04/18 06:39:32;;;;;;;10.25;7.30;;;6.00;99.90;;;;;;5015407;28;20032;-81
2021/04/18 06:42:03;;;;;;;10.80;7.80;;;6.00;99.90;;;;;;5015374;28;20028;-82
2021/04/18 06:44:30;;;;;;;9.73;8.15;;;6.00;99.90;;;;;;5015506;28;20029;-81
2021/04/18 06:46:58;;;;;;;11.65;8.15;;;6.10;99.90;;;;;;5033224;28;20450;-81
2021/04/18 06:49:28;;;;;;;12.13;8.25;;;6.10;99.90;;;;;;5033136;28;20049;-81
2021/04/18 06:51:56;;;;;;;8.68;6.15;;;6.00;99.90;;;;;;5016248;28;20564;-81
2021/04/18 06:54:22;;;;;;;9.75;8.23;;;6.00;99.90;;;;;;5015341;28;20025;-81
2021/04/18 06:56:48;;;;;;;9.38;7.45;;;6.00;99.90;;;;;;5033019;28;20036;-81
2021/04/18 06:59:13;;;;;;;11.02;7.90;;;5.90;99.90;;;;;;5015353;28;20112;-81
2021/04/18 07:01:40;;;;;;;10.10;7.07;;;5.90;99.90;;;;;;5015277;28;20052;-81
2021/04/18 07:04:18;;;;;;;11.48;7.75;;;6.00;99.90;;;;;;5015562;28;20084;-81
2021/04/18 07:06:50;;;;;;;14.82;7.90;;;6.00;99.90;;;;;;5032948;28;20083;-81
2021/04/18 07:09:19;;;;;;;9.43;7.32;;;6.00;99.90;;;;;;5033321;28;20026;-81
2021/04/18 07:11:50;;;;;;;8.95;6.47;;;6.00;99.90;;;;;;5032960;28;20053;-81
2021/04/18 07:14:26;;;;;;;8.80;7.70;;;6.10;99.90;;;;;;5015103;28;20036;-81
2021/04/18 07:16:54;;;;;;;12.10;7.70;;;6.20;99.90;;;;;;5032937;28;20404;-81
2021/04/18 07:19:24;;;;;;;9.18;6.63;;;6.30;99.90;;;;;;5033120;28;20024;-81
2021/04/18 07:21:53;;;;;;;13.27;8.27;;;6.40;99.90;;;;;;5033189;28;20413;-81
2021/04/18 07:24:20;;;;;;;13.52;8.13;;;6.50;99.90;;;;;;5032852;28;20075;-81
2021/04/18 07:26:56;;;;;;;12.98;8.82;;;6.60;99.90;;;;;;5015156;28;20099;-81
2021/04/18 07:29:22;;;;;;;12.57;7.70;;;6.50;99.90;;;;;;5032812;28;20124;-81
2021/04/18 07:31:48;;;;;;;9.70;6.65;;;6.50;99.90;;;;;;5033028;28;20029;-81
2021/04/18 07:34:17;;;;;;;14.20;8.45;;;6.80;99.90;;;;;;5014991;28;20032;-81
2021/04/18 07:36:45;;;;;;;9.40;7.43;;;6.90;99.90;;;;;;5015074;28;20158;-81
2021/04/18 07:39:13;;;;;;;15.82;8.77;;;6.80;99.90;;;;;;5032780;28;20014;-81
2021/04/18 07:41:44;;;;;;;11.80;7.55;;;6.80;99.90;;;;;;5032675;28;20485;-81
2021/04/18 07:44:16;;;;;;;11.50;7.75;;;6.80;99.90;;;;;;5014849;28;20574;-81
2021/04/18 07:46:57;;;;;;;16.77;8.98;;;6.90;99.90;;;;;;5034146;28;20197;-81
2021/04/18 07:49:23;;;;;;;11.57;8.05;;;6.90;99.90;;;;;;5036253;28;20083;-81
2021/04/18 07:51:49;;;;;;;12.90;8.48;;;7.00;99.90;;;;;;5036446;28;20063;-81
2021/04/18 07:54:18;;;;;;;20.00;11.25;;;6.90;99.90;;;;;;5036373;28;20032;-81
2021/04/18 07:56:48;;;;;;;17.95;10.13;;;7.00;99.90;;;;;;5018335;28;20021;-81
2021/04/18 07:59:21;;;;;;;17.58;8.65;;;7.10;99.90;;;;;;5018321;28;20018;-81
2021/04/18 08:01:46;;;;;;;13.50;7.90;;;7.20;99.90;;;;;;5018286;28;20257;-81
2021/04/18 08:04:16;;;;;;;28.90;11.55;;;7.40;99.90;;;;;;5036180;28;20109;-81
2021/04/18 08:06:42;;;;;;;16.75;8.60;;;7.50;99.90;;;;;;5018208;28;20508;-81
2021/04/18 08:09:19;;;;;;;18.90;8.48;;;7.50;99.90;;;;;;5018134;28;20111;-81
2021/04/18 08:12:09;;;;;;;20.20;8.50;;;7.40;99.90;;;;;;5018114;28;20034;-81
2021/04/18 08:14:36;;;;;;;13.07;8.18;;;7.50;99.90;;;;;;5035944;28;20029;-81
2021/04/18 08:17:10;;;;;;;13.23;7.78;;;7.40;99.90;;;;;;5017864;28;20113;-81
2021/04/18 08:19:37;;;;;;;16.50;8.13;;;7.40;99.90;;;;;;5018012;28;20079;-81
2021/04/18 08:22:04;;;;;;;14.82;7.90;;;7.40;99.90;;;;;;5035588;28;20033;-81
2021/04/18 08:24:33;;;;;;;15.45;7.30;;;7.40;99.90;;;;;;5018093;28;20048;-81
2021/04/18 08:27:08;;;;;;;18.70;7.38;;;7.50;99.90;;;;;;5017755;28;20025;-81
2021/04/18 08:29:35;;;;;;;16.45;8.60;;;7.50;99.90;;;;;;5017735;28;20507;-81
2021/04/18 08:32:07;;;;;;;11.07;6.45;;;7.60;99.90;;;;;;5035444;28;20021;-81
2021/04/18 08:34:34;;;;;;;25.58;7.70;;;7.50;99.90;;;;;;5035337;28;20033;-81
2021/04/18 08:37:02;;;;;;;15.50;8.40;;;7.40;99.90;;;;;;5035272;28;20380;-82
2021/04/18 08:39:31;;;;;;;16.50;7.85;;;7.30;99.90;;;;;;5035220;28;20101;-82
2021/04/18 08:41:59;;;;;;;22.48;14.13;;;7.20;99.90;;;;;;5035354;28;20088;-83
2021/04/18 08:44:27;;;;;;;14.73;6.18;;;7.20;99.90;;;;;;5035490;28;20473;-82
2021/04/18 08:46:54;;;;;;;9.05;6.22;;;7.30;99.90;;;;;;5035403;28;20445;-82
2021/04/18 08:49:26;;;;;;;12.63;6.88;;;7.30;99.90;;;;;;5017349;28;20029;-82
2021/04/18 08:51:53;;;;;;;18.75;7.28;;;7.40;99.90;;;;;;5035062;28;20489;-82
2021/04/18 08:54:28;;;;;;;12.70;6.82;;;7.50;99.90;;;;;;5035446;28;20075;-82
2021/04/18 08:56:56;;;;;;;13.18;6.82;;;7.40;99.90;;;;;;5034726;28;20493;-82
2021/04/18 08:59:23;;;;;;;11.50;6.50;;;7.50;99.90;;;;;;5034926;28;20022;-82
2021/04/18 09:01:58;;;;;;;12.50;6.32;;;7.60;99.90;;;;;;5034890;28;20018;-82
2021/04/18 09:04:24;;;;;;;13.27;7.68;;;7.70;99.90;;;;;;5034763;28;20029;-82
2021/04/18 09:06:50;;;;;;;16.38;7.68;;;7.70;99.90;;;;;;5034979;28;20025;-82
2021/04/18 09:09:18;;;;;;;14.50;7.07;;;7.70;99.90;;;;;;5034702;28;20068;-82
2021/04/18 09:11:47;;;;;;;14.48;7.45;;;7.60;99.90;;;;;;5034932;28;20029;-82
2021/04/18 09:14:34;;;;;;;14.27;7.63;;;7.60;99.90;;;;;;5034576;28;20021;-82
2021/04/18 09:17:13;;;;;;;19.00;8.98;;;7.50;99.90;;;;;;5016863;28;20022;-82
2021/04/18 09:20:00;;;;;;;12.98;7.15;;;7.60;99.90;;;;;;5034561;28;20022;-82
2021/04/18 09:22:32;;;;;;;15.80;7.35;;;7.60;99.90;;;;;;5016808;28;20049;-82
2021/04/18 09:25:06;;;;;;;12.93;7.57;;;7.60;99.90;;;;;;5016622;28;20025;-82
2021/04/18 09:27:39;;;;;;;12.60;7.28;;;7.50;99.90;;;;;;5016673;28;20025;-82
2021/04/18 09:30:07;;;;;;;11.82;7.18;;;7.50;99.90;;;;;;5034717;28;20034;-82
2021/04/18 09:32:41;;;;;;;11.35;6.10;;;7.40;99.90;;;;;;5017062;28;20120;-82
2021/04/18 09:35:09;;;;;;;15.13;6.43;;;7.40;99.90;;;;;;5034155;28;20052;-82
2021/04/18 09:37:38;;;;;;;15.05;6.63;;;7.50;99.90;;;;;;5016467;28;20075;-82
2021/04/18 09:40:12;;;;;;;13.07;6.93;;;7.60;99.90;;;;;;5034159;28;20079;-82
2021/04/18 09:42:42;;;;;;;17.70;7.70;;;7.60;99.90;;;;;;5033750;28;20046;-82
2021/04/18 09:45:29;;;;;;;13.57;7.30;;;7.60;99.90;;;;;;5034638;28;20021;-82
2021/04/18 09:47:57;;;;;;;13.27;7.30;;;7.90;99.90;;;;;;5034044;28;20029;-81
2021/04/18 09:50:34;;;;;;;12.00;6.15;;;8.20;99.90;;;;;;5033972;28;20569;-82
2021/04/18 09:53:25;;;;;;;11.82;5.55;;;8.30;99.90;;;;;;5034198;28;20022;-82
2021/04/18 09:56:00;;;;;;;11.13;5.38;;;8.40;99.90;;;;;;5016084;28;20022;-82
2021/04/18 09:58:31;;;;;;;14.65;6.35;;;8.40;99.90;;;;;;5034165;28;20025;-82
2021/04/18 10:00:58;;;;;;;13.48;7.40;;;8.50;99.90;;;;;;5016011;28;20489;-82
2021/04/18 10:03:40;;;;;;;12.52;6.60;;;8.20;99.90;;;;;;5015766;28;20059;-82
2021/04/18 10:06:07;;;;;;;21.05;7.65;;;8.30;99.90;;;;;;5016032;28;20079;-82
2021/04/18 10:08:37;;;;;;;10.82;5.78;;;8.20;99.90;;;;;;5033251;28;20039;-82
2021/04/18 10:11:06;;;;;;;14.10;6.10;;;8.30;99.90;;;;;;5015815;28;20021;-82
2021/04/18 10:13:42;;;;;;;11.68;6.45;;;8.40;99.90;;;;;;5033551;28;20022;-82
2021/04/18 10:16:09;;;;;;;12.50;7.68;;;8.20;99.90;;;;;;5015713;28;20370;-82
2021/04/18 10:18:36;;;;;;;21.63;8.43;;;8.00;99.90;;;;;;5015814;28;20018;-82
2021/04/18 10:21:22;;;;;;;12.68;6.28;;;8.10;99.90;;;;;;5015802;28;20029;-82
2021/04/18 10:23:50;;;;;;;19.67;7.18;;;8.20;99.90;;;;;;5033966;28;20076;-82
2021/04/18 10:26:18;;;;;;;18.70;7.75;;;8.20;99.90;;;;;;5033315;28;20029;-82
2021/04/18 10:28:48;;;;;;;16.40;7.95;;;8.30;99.90;;;;;;5032718;28;20440;-82
2021/04/18 10:31:15;;;;;;;20.92;7.82;;;8.50;99.90;;;;;;5033319;28;20032;-82
2021/04/18 10:33:41;;;;;;;14.70;6.57;;;8.50;99.90;;;;;;5033294;28;20501;-82
2021/04/18 10:36:07;;;;;;;13.65;6.53;;;8.60;99.90;;;;;;5015386;28;20033;-82
2021/04/18 10:38:33;;;;;;;16.52;7.85;;;8.70;99.90;;;;;;5015704;28;20030;-82
2021/04/18 10:40:59;;;;;;;18.58;8.93;;;8.50;99.90;;;;;;5033432;28;20029;-82
2021/04/18 10:43:24;;;;;;;16.00;7.43;;;8.60;99.90;;;;;;5015461;28;20144;-82
2021/04/18 10:45:50;;;;;;;17.00;7.10;;;8.70;99.90;;;;;;5033171;28;20025;-82
2021/04/18 10:48:16;;;;;;;17.90;7.28;;;8.80;99.90;;;;;;5033196;28;20053;-82
2021/04/18 10:50:42;;;;;;;23.75;8.18;;;8.60;99.90;;;;;;5032823;28;20029;-82
2021/04/18 10:53:08;;;;;;;16.13;7.25;;;8.60;99.90;;;;;;5033148;28;20456;-81
2021/04/18 10:55:33;;;;;;;14.48;7.75;;;8.70;99.90;;;;;;5033246;28;20021;-81
2021/04/18 10:57:59;;;;;;;13.82;6.30;;;8.70;99.90;;;;;;5015405;28;20431;-82
2021/04/18 11:00:27;;;;;;;16.58;7.70;;;8.80;99.90;;;;;;5033053;28;20420;-81
2021/04/18 11:02:53;;;;;;;14.68;6.85;;;8.60;99.90;;;;;;5033031;28;20022;-82
2021/04/18 11:05:18;;;;;;;18.67;7.82;;;8.70;99.90;;;;;;5032998;28;20037;-82
2021/04/18 11:07:44;;;;;;;12.27;7.53;;;8.70;99.90;;;;;;5033315;28;20021;-81
2021/04/18 11:10:11;;;;;;;14.73;7.05;;;8.70;99.90;;;;;;5033016;28;20495;-82
2021/04/18 11:12:37;;;;;;;17.73;8.00;;;8.60;99.90;;;;;;4998807;28;20440;-81
2021/04/18 11:15:04;;;;;;;15.02;7.97;;;8.50;99.90;;;;;;5032842;28;20033;-82
2021/04/18 11:17:30;;;;;;;11.45;6.93;;;8.60;99.90;;;;;;5033193;28;20024;-81
2021/04/18 11:19:56;;;;;;;15.40;7.47;;;8.60;99.90;;;;;;5015403;28;20026;-81
2021/04/18 11:22:22;;;;;;;13.95;6.88;;;8.60;99.90;;;;;;5018881;28;20024;-81
2021/04/18 11:24:47;;;;;;;11.00;6.82;;;8.50;99.90;;;;;;5036953;28;20036;-82
2021/04/18 11:27:13;;;;;;;18.45;8.48;;;8.50;99.90;;;;;;5036645;28;20025;-82
2021/04/18 11:29:42;;;;;;;13.90;7.65;;;8.40;99.90;;;;;;5019266;28;20562;-82
2021/04/18 11:32:08;;;;;;;17.25;8.63;;;8.50;99.90;;;;;;5018780;28;20040;-82
2021/04/18 11:34:34;;;;;;;12.75;7.05;;;8.40;99.90;;;;;;5036735;28;20022;-82
2021/04/18 11:37:00;;;;;;;19.13;7.93;;;8.30;99.90;;;;;;5036602;28;20128;-82
2021/04/18 11:39:25;;;;;;;21.05;8.48;;;8.30;99.90;;;;;;5018818;28;20072;-81
2021/04/18 11:41:51;;;;;;;15.40;7.57;;;8.30;99.90;;;;;;5018652;28;20017;-82
2021/04/18 11:44:17;;;;;;;26.15;12.25;;;8.20;99.90;;;;;;5036167;28;20045;-82
2021/04/18 11:46:44;;;;;;;24.33;9.50;;;8.20;99.90;;;;;;5036287;28;20026;-82
2021/04/18 11:49:12;;;;;;;18.92;7.53;;;8.20;99.90;;;;;;5036248;28;20025;-82
2021/04/18 11:51:41;;;;;;;13.80;7.45;;;8.40;99.90;;;;;;5036106;28;20032;-82
2021/04/18 11:54:08;;;;;;;15.45;8.15;;;8.50;99.90;;;;;;5036086;28;20423;-82
2021/04/18 11:56:35;;;;;;;13.85;7.90;;;8.60;99.90;;;;;;5018376;28;20029;-82
2021/04/18 11:59:01;;;;;;;15.45;9.10;;;8.70;99.90;;;;;;5036333;28;20026;-82
2021/04/18 12:01:27;;;;;;;11.13;7.18;;;8.90;99.90;;;;;;5018281;28;20021;-82
2021/04/18 12:03:54;;;;;;;16.50;7.22;;;9.00;99.90;;;;;;5018167;28;20032;-82
2021/04/18 12:06:20;;;;;;;12.60;7.10;;;9.00;99.90;;;;;;5036500;28;20021;-82
2021/04/18 12:08:47;;;;;;;12.77;7.70;;;9.00;99.90;;;;;;5017871;28;20025;-82
2021/04/18 12:11:12;;;;;;;24.25;13.40;;;9.00;99.90;;;;;;5035855;28;20080;-82
2021/04/18 12:13:40;;;;;;;16.40;8.07;;;8.90;99.90;;;;;;5035775;28;20022;-82
2021/04/18 12:16:06;;;;;;;20.30;10.05;;;8.80;99.90;;;;;;5017960;28;20108;-82
2021/04/18 12:18:32;;;;;;;15.95;8.57;;;8.80;99.90;;;;;;5017915;28;20519;-82
2021/04/18 12:20:57;;;;;;;12.68;8.18;;;8.80;99.90;;;;;;5018062;28;20068;-82
2021/04/18 12:23:24;;;;;;;19.33;7.45;;;8.80;99.90;;;;;;5035629;28;20366;-82
2021/04/18 12:25:50;;;;;;;11.60;7.47;;;8.80;99.90;;;;;;5017857;28;20025;-82
2021/04/18 12:28:16;;;;;;;10.90;6.75;;;8.90;99.90;;;;;;5035817;28;20022;-82
2021/04/18 12:30:41;;;;;;;13.35;7.55;;;9.00;99.90;;;;;;5017776;28;20485;-82
2021/04/18 12:33:07;;;;;;;11.43;6.80;;;9.20;99.90;;;;;;5034570;28;20040;-82
2021/04/18 12:35:33;;;;;;;10.25;6.72;;;9.20;99.90;;;;;;5017328;28;20064;-82
2021/04/18 12:37:59;;;;;;;9.77;6.03;;;9.30;99.90;;;;;;5035284;28;20057;-82
2021/04/18 12:40:25;;;;;;;9.27;5.90;;;9.40;99.90;;;;;;5017578;28;20030;-82
2021/04/18 12:42:51;;;;;;;9.38;6.53;;;9.40;99.90;;;;;;5035047;28;20037;-82
2021/04/18 12:45:17;;;;;;;10.45;6.70;;;9.40;99.90;;;;;;5035219;28;20083;-82
2021/04/18 12:47:44;;;;;;;9.68;6.72;;;9.40;99.90;;;;;;5017469;28;20049;-83
2021/04/18 12:50:10;;;;;;;11.75;6.40;;;9.50;99.90;;;;;;5035130;28;20362;-82